createdAt,value
2019-03-22T00:01:38.326Z,14.10
2019-03-22T00:04:06.373Z,14.50
2019-03-22T00:06:34.457Z,15.13
2019-03-22T00:09:02.482Z,14.63
2019-03-22T00:11:31.425Z,14.00
2019-03-22T00:13:59.601Z,13.52
2019-03-22T00:16:27.646Z,14.87
2019-03-22T00:18:55.697Z,16.30
2019-03-22T00:21:23.738Z,12.65
2019-03-22T00:23:52.555Z,14.60
2019-03-22T00:26:20.602Z,14.32
2019-03-22T00:28:48.707Z,15.90
2019-03-22T00:31:16.756Z,15.50
2019-03-22T00:33:45.655Z,14.18
2019-03-22T00:36:13.695Z,16.00
2019-03-22T00:38:41.806Z,15.55
2019-03-22T00:41:10.583Z,13.37
2019-03-22T00:43:38.675Z,13.00
2019-03-22T00:46:06.698Z,13.45
2019-03-22T00:48:35.739Z,12.10
2019-03-22T00:51:03.751Z,13.37
2019-03-22T00:53:31.790Z,11.95
2019-03-22T00:55:59.823Z,13.50
2019-03-22T00:58:27.866Z,14.38
2019-03-22T01:00:55.907Z,15.07
2019-03-22T01:03:23.960Z,16.37
2019-03-22T01:05:51.986Z,12.37
2019-03-22T01:08:20.839Z,12.60
2019-03-22T01:10:48.875Z,12.88
2019-03-22T01:13:17.696Z,11.70
2019-03-22T01:15:45.730Z,13.75
2019-03-22T01:18:13.821Z,13.45
2019-03-22T01:20:41.854Z,13.15
2019-03-22T01:23:10.681Z,15.80
2019-03-22T01:25:38.856Z,14.15
2019-03-22T01:28:06.905Z,13.60
2019-03-22T01:30:34.938Z,13.25
2019-03-22T01:33:03.002Z,14.48
2019-03-22T01:35:31.130Z,12.77
2019-03-22T01:37:59.961Z,14.53
2019-03-22T01:40:27.996Z,18.25
2019-03-22T01:42:56.039Z,11.05
2019-03-22T01:45:24.838Z,12.50
2019-03-22T01:47:52.910Z,14.65
2019-03-22T01:50:20.952Z,12.57
2019-03-22T01:52:48.999Z,16.45
2019-03-22T01:55:17.339Z,14.98
2019-03-22T01:57:52.988Z,13.43
2019-03-22T02:00:13.451Z,15.93
2019-03-22T02:02:42.302Z,15.90
2019-03-22T02:05:10.494Z,13.55
2019-03-22T02:07:38.562Z,15.63
2019-03-22T02:10:07.484Z,14.75
2019-03-22T02:12:36.494Z,12.18
2019-03-22T02:15:05.697Z,11.70
2019-03-22T02:17:33.738Z,14.30
2019-03-22T02:20:02.530Z,12.45
2019-03-22T02:22:30.575Z,14.43
2019-03-22T02:24:58.623Z,14.00
2019-03-22T02:27:26.698Z,14.10
2019-03-22T02:29:54.690Z,12.13
2019-03-22T02:32:22.795Z,15.35
2019-03-22T02:34:50.835Z,16.42
2019-03-22T02:37:18.876Z,12.37
2019-03-22T02:39:47.062Z,13.93
2019-03-22T02:42:15.009Z,13.30
2019-03-22T02:44:43.759Z,12.63
2019-03-22T02:47:12.729Z,10.90
2019-03-22T02:49:41.529Z,14.10
2019-03-22T02:52:10.370Z,13.77
2019-03-22T02:54:38.456Z,13.23
2019-03-22T02:57:06.480Z,11.55
2019-03-22T02:59:34.562Z,14.38
2019-03-22T03:02:02.624Z,13.48
2019-03-22T03:04:31.441Z,15.38
2019-03-22T03:06:59.476Z,12.32
2019-03-22T03:09:27.518Z,12.10
2019-03-22T03:11:56.367Z,15.55
2019-03-22T03:14:24.510Z,16.12
2019-03-22T03:16:52.571Z,14.80
2019-03-22T03:19:20.654Z,11.52
2019-03-22T03:21:48.758Z,13.43
2019-03-22T03:24:16.891Z,13.30
2019-03-22T03:26:44.971Z,11.32
2019-03-22T03:29:13.016Z,11.75
2019-03-22T03:31:41.816Z,12.02
2019-03-22T03:34:09.976Z,15.63
2019-03-22T03:36:38.674Z,13.90
2019-03-22T03:39:06.767Z,13.00
2019-03-22T03:41:34.833Z,14.35
2019-03-22T03:44:03.617Z,13.23
2019-03-22T03:46:31.657Z,14.95
2019-03-22T03:49:00.487Z,12.18
2019-03-22T03:51:28.532Z,13.48
2019-03-22T03:53:56.606Z,11.70
2019-03-22T03:56:26.447Z,13.27
2019-03-22T03:58:54.592Z,12.57
2019-03-22T04:01:22.721Z,13.55
2019-03-22T04:03:50.878Z,13.60
2019-03-22T04:06:18.903Z,12.80
2019-03-22T04:08:46.965Z,11.57
2019-03-22T04:11:15.806Z,12.98
2019-03-22T04:13:43.844Z,16.00
2019-03-22T04:16:11.874Z,16.58
2019-03-22T04:18:40.036Z,10.15
2019-03-22T04:21:08.102Z,11.02
2019-03-22T04:23:36.230Z,16.70
2019-03-22T04:26:04.307Z,15.98
2019-03-22T04:28:32.425Z,14.73
2019-03-22T04:31:00.429Z,17.10
2019-03-22T04:33:29.235Z,20.95
2019-03-22T04:35:57.276Z,18.08
2019-03-22T04:38:26.192Z,19.33
2019-03-22T04:40:54.239Z,22.85
2019-03-22T04:43:23.089Z,18.05
2019-03-22T04:45:51.139Z,21.67
2019-03-22T04:48:22.101Z,16.17
2019-03-22T04:50:50.146Z,19.73
2019-03-22T04:53:18.208Z,16.35
2019-03-22T04:55:46.309Z,13.32
2019-03-22T04:58:14.435Z,12.75
2019-03-22T05:00:43.229Z,12.02
2019-03-22T05:03:11.250Z,13.70
2019-03-22T05:05:39.333Z,11.75
2019-03-22T05:08:07.449Z,14.13
2019-03-22T05:10:35.490Z,13.62
2019-03-22T05:13:03.600Z,13.93
2019-03-22T05:15:31.624Z,15.35
2019-03-22T05:17:59.718Z,12.77
2019-03-22T05:20:28.558Z,13.80
2019-03-22T05:22:56.690Z,16.35
2019-03-22T05:25:24.726Z,15.23
2019-03-22T05:27:52.839Z,13.88
2019-03-22T05:33:22.571Z,13.70
2019-03-22T05:35:50.621Z,17.67
2019-03-22T05:38:19.426Z,11.63
2019-03-22T05:40:47.506Z,16.25
2019-03-22T05:43:15.539Z,16.37
2019-03-22T05:45:44.494Z,16.10
2019-03-22T05:48:12.630Z,16.83
2019-03-22T05:50:41.447Z,15.13
2019-03-22T05:53:09.502Z,14.82
2019-03-22T05:55:37.651Z,14.87
2019-03-22T05:58:05.722Z,16.27
2019-03-22T06:00:33.821Z,16.23
2019-03-22T06:03:01.900Z,15.07
2019-03-22T06:05:29.922Z,17.37
2019-03-22T06:07:57.999Z,18.35
2019-03-22T06:10:26.094Z,18.92
2019-03-22T06:12:54.149Z,31.48
2019-03-22T06:15:22.190Z,24.98
2019-03-22T06:17:52.081Z,24.23
2019-03-22T06:20:19.794Z,21.40
2019-03-22T06:22:47.854Z,17.15
2019-03-22T06:25:15.973Z,14.87
2019-03-22T06:27:44.109Z,16.12
2019-03-22T06:30:12.167Z,18.45
2019-03-22T06:32:40.967Z,14.77
2019-03-22T06:35:09.014Z,12.85
2019-03-22T06:37:37.066Z,16.70
2019-03-22T06:40:05.120Z,12.15
2019-03-22T06:42:33.119Z,14.43
2019-03-22T06:45:01.995Z,15.38
2019-03-22T06:47:30.031Z,14.32
2019-03-22T06:49:58.096Z,14.93
2019-03-22T06:52:26.139Z,16.25
2019-03-22T06:54:54.178Z,15.05
2019-03-22T06:57:22.227Z,19.27
2019-03-22T06:59:50.263Z,17.05
2019-03-22T07:02:18.347Z,17.98
2019-03-22T07:04:46.441Z,15.57
2019-03-22T07:07:14.471Z,15.80
2019-03-22T07:09:42.571Z,16.77
2019-03-22T07:12:10.605Z,15.27
2019-03-22T07:14:38.692Z,19.37
2019-03-22T07:17:06.877Z,16.37
2019-03-22T07:19:34.973Z,14.43
2019-03-22T07:22:03.002Z,16.77
2019-03-22T07:24:31.068Z,15.27
2019-03-22T07:26:59.109Z,13.23
2019-03-22T07:29:27.932Z,16.60
2019-03-22T07:31:55.986Z,13.45
2019-03-22T07:34:24.049Z,14.60
2019-03-22T07:36:52.992Z,14.90
2019-03-22T07:39:21.131Z,15.48
2019-03-22T07:41:49.239Z,14.02
2019-03-22T07:44:17.284Z,14.32
2019-03-22T07:46:45.393Z,15.25
2019-03-22T07:49:13.494Z,12.53
2019-03-22T07:51:41.592Z,13.30
2019-03-22T07:54:09.630Z,10.57
2019-03-22T07:56:38.525Z,11.88
2019-03-22T07:59:06.606Z,13.45
2019-03-22T08:01:34.654Z,12.77
2019-03-22T08:04:03.462Z,15.15
2019-03-22T08:06:31.561Z,15.55
2019-03-22T08:08:59.750Z,13.98
2019-03-22T08:11:27.941Z,11.63
2019-03-22T08:13:56.000Z,17.17
2019-03-22T08:16:24.134Z,13.10
2019-03-22T08:18:52.218Z,15.82
2019-03-22T08:21:20.266Z,12.73
2019-03-22T08:23:48.385Z,12.70
2019-03-22T08:26:16.498Z,13.10
2019-03-22T08:28:45.295Z,12.33
2019-03-22T08:31:13.398Z,17.92
2019-03-22T08:33:41.571Z,11.52
2019-03-22T08:36:09.713Z,10.52
2019-03-22T08:38:38.532Z,11.73
2019-03-22T08:41:06.598Z,14.50
2019-03-22T08:43:34.634Z,15.40
2019-03-22T08:46:02.759Z,12.40
2019-03-22T08:48:30.779Z,12.60
2019-03-22T08:50:58.848Z,13.68
2019-03-22T08:53:27.029Z,12.32
2019-03-22T08:55:55.109Z,12.52
2019-03-22T08:58:23.918Z,15.30
2019-03-22T09:00:57.481Z,13.60
2019-03-22T09:03:20.154Z,11.75
2019-03-22T09:05:48.444Z,12.68
2019-03-22T09:08:16.552Z,13.60
2019-03-22T09:10:44.537Z,12.00
2019-03-22T09:13:13.370Z,13.05
2019-03-22T09:15:42.001Z,13.93
2019-03-22T09:18:09.461Z,14.20
2019-03-22T09:20:38.243Z,13.93
2019-03-22T09:23:06.339Z,13.23
2019-03-22T09:25:34.498Z,13.27
2019-03-22T09:28:02.648Z,12.68
2019-03-22T09:30:30.816Z,16.58
2019-03-22T09:32:58.953Z,12.82
2019-03-22T09:35:27.080Z,13.02
2019-03-22T09:37:55.274Z,11.50
2019-03-22T09:40:24.148Z,13.03
2019-03-22T09:42:53.097Z,13.45
2019-03-22T09:45:20.290Z,11.32
2019-03-22T09:47:49.110Z,15.02
2019-03-22T09:50:17.124Z,14.73
2019-03-22T09:52:45.260Z,13.90
2019-03-22T09:55:14.550Z,12.77
2019-03-22T09:57:41.401Z,12.23
2019-03-22T10:00:09.427Z,12.65
2019-03-22T10:02:37.506Z,12.37
2019-03-22T10:05:06.292Z,12.95
2019-03-22T10:07:34.431Z,13.35
2019-03-22T10:10:03.343Z,10.70
2019-03-22T10:12:31.385Z,12.30
2019-03-22T10:14:59.488Z,11.25
2019-03-22T10:17:27.624Z,11.98
2019-03-22T10:19:55.631Z,12.77
2019-03-22T10:22:24.498Z,12.18
2019-03-22T10:24:52.587Z,11.68
2019-03-22T10:27:21.389Z,12.43
2019-03-22T10:29:49.438Z,14.05
2019-03-22T10:32:18.407Z,10.95
2019-03-22T10:34:46.515Z,11.55
2019-03-22T10:37:14.564Z,13.95
2019-03-22T10:39:43.534Z,11.20
2019-03-22T10:42:11.450Z,10.03
2019-03-22T10:44:39.601Z,13.93
2019-03-22T10:47:07.563Z,13.20
2019-03-22T10:49:36.409Z,12.88
2019-03-22T10:52:04.737Z,13.00
2019-03-22T10:54:32.549Z,10.73
2019-03-22T10:57:00.595Z,11.32
2019-03-22T10:59:28.635Z,10.48
2019-03-22T11:02:03.397Z,12.05
2019-03-22T11:04:25.607Z,11.32
2019-03-22T11:06:53.675Z,9.93
2019-03-22T11:09:21.757Z,11.02
2019-03-22T11:11:49.809Z,11.35
2019-03-22T11:14:18.606Z,9.90
2019-03-22T11:16:46.662Z,10.73
2019-03-22T11:19:15.611Z,10.63
2019-03-22T11:21:43.647Z,11.80
2019-03-22T11:24:11.714Z,11.90
2019-03-22T11:26:39.805Z,10.65
2019-03-22T11:29:07.884Z,10.38
2019-03-22T11:31:39.726Z,9.85
2019-03-22T11:34:04.706Z,14.07
2019-03-22T11:36:33.542Z,12.97
2019-03-22T11:39:01.634Z,11.35
2019-03-22T11:41:29.670Z,11.93
2019-03-22T11:43:57.686Z,11.87
2019-03-22T11:46:26.549Z,10.82
2019-03-22T11:48:54.615Z,11.57
2019-03-22T11:51:22.725Z,12.70
2019-03-22T11:53:51.556Z,11.32
2019-03-22T11:56:19.646Z,9.95
2019-03-22T11:58:47.694Z,10.73
2019-03-22T12:01:19.663Z,10.60
2019-03-22T12:03:43.993Z,11.50
2019-03-22T12:06:12.857Z,11.23
2019-03-22T12:08:40.987Z,10.40
2019-03-22T12:11:09.030Z,14.60
2019-03-22T12:13:37.967Z,11.30
2019-03-22T12:16:06.898Z,9.90
2019-03-22T12:18:35.078Z,11.88
2019-03-22T12:21:03.983Z,9.05
2019-03-22T12:23:32.914Z,10.93
2019-03-22T12:26:01.068Z,12.52
2019-03-22T12:28:29.185Z,9.73
2019-03-22T12:30:58.894Z,11.80
2019-03-22T12:33:26.991Z,12.37
2019-03-22T12:35:56.589Z,12.40
2019-03-22T12:38:24.719Z,9.98
2019-03-22T12:40:52.846Z,11.93
2019-03-22T12:43:22.446Z,9.90
2019-03-22T12:45:51.363Z,11.27
2019-03-22T12:48:19.460Z,9.70
2019-03-22T12:50:47.566Z,14.77
2019-03-22T12:53:15.642Z,14.37
2019-03-22T12:55:44.514Z,10.15
2019-03-22T12:58:12.682Z,11.50
2019-03-22T13:00:41.639Z,12.30
2019-03-22T13:03:09.707Z,11.88
2019-03-22T13:05:37.829Z,11.75
2019-03-22T13:08:05.958Z,13.45
2019-03-22T13:10:34.029Z,11.05
2019-03-22T13:13:02.066Z,9.57
2019-03-22T13:15:30.835Z,11.07
2019-03-22T13:17:58.934Z,11.23
2019-03-22T13:20:27.047Z,14.20
2019-03-22T13:22:55.188Z,12.50
2019-03-22T13:25:24.107Z,11.98
2019-03-22T13:27:52.209Z,11.70
2019-03-22T13:30:36.525Z,14.02
2019-03-22T13:33:04.618Z,13.73
2019-03-22T13:35:33.560Z,13.02
2019-03-22T13:38:02.355Z,11.60
2019-03-22T13:40:30.482Z,12.40
2019-03-22T13:42:58.741Z,12.55
2019-03-22T13:45:26.772Z,13.90
2019-03-22T13:47:54.846Z,12.63
2019-03-22T13:50:22.923Z,12.18
2019-03-22T13:52:51.075Z,11.98
2019-03-22T13:55:19.181Z,14.73
2019-03-22T13:57:47.269Z,11.95
2019-03-22T14:00:16.102Z,13.60
2019-03-22T14:02:44.225Z,10.95
2019-03-22T14:05:12.291Z,11.25
2019-03-22T14:07:40.331Z,12.88
2019-03-22T14:10:12.791Z,14.07
2019-03-22T14:12:40.827Z,15.90
2019-03-22T14:15:08.894Z,11.23
2019-03-22T14:17:37.006Z,12.57
2019-03-22T14:20:11.336Z,12.23
2019-03-22T14:22:33.839Z,11.88
2019-03-22T14:25:02.771Z,14.38
2019-03-22T14:27:30.830Z,15.27
2019-03-22T14:29:58.887Z,13.57
2019-03-22T14:32:26.926Z,13.18
2019-03-22T14:34:55.755Z,9.90
2019-03-22T14:37:23.790Z,11.35
2019-03-22T14:39:52.745Z,11.77
2019-03-22T14:42:20.913Z,11.90
2019-03-22T14:44:49.064Z,12.93
2019-03-22T14:47:17.107Z,12.25
2019-03-22T14:49:45.198Z,12.67
2019-03-22T14:52:13.244Z,12.10
2019-03-22T14:54:42.053Z,12.45
2019-03-22T14:57:10.837Z,12.50
2019-03-22T14:59:38.918Z,12.10
2019-03-22T15:02:07.026Z,12.82
2019-03-22T15:04:35.046Z,10.95
2019-03-22T15:07:03.195Z,14.95
2019-03-22T15:09:31.285Z,13.35
2019-03-22T15:12:00.090Z,14.52
2019-03-22T15:14:28.184Z,12.65
2019-03-22T15:17:02.852Z,14.13
2019-03-22T15:19:35.882Z,13.32
2019-03-22T15:22:09.627Z,14.98
2019-03-22T15:24:42.610Z,13.57
2019-03-22T15:27:16.338Z,16.10
2019-03-22T15:29:50.039Z,14.13
2019-03-22T15:32:37.603Z,12.80
2019-03-22T15:35:07.152Z,13.52
2019-03-22T15:37:40.846Z,15.43
2019-03-22T15:40:08.970Z,14.57
2019-03-22T15:42:37.851Z,16.80
2019-03-22T15:45:06.069Z,13.73
2019-03-22T15:47:34.082Z,15.43
2019-03-22T15:50:03.002Z,12.18
2019-03-22T15:52:31.058Z,13.98
2019-03-22T15:54:59.702Z,13.10
2019-03-22T15:57:27.857Z,12.93
2019-03-22T15:59:55.992Z,13.38
2019-03-22T16:02:24.054Z,14.20
2019-03-22T16:04:52.869Z,13.35
2019-03-22T16:07:21.078Z,13.77
2019-03-22T16:09:49.130Z,16.17
2019-03-22T16:12:17.195Z,14.00
2019-03-22T16:14:45.250Z,15.37
2019-03-22T16:17:13.302Z,14.43
2019-03-22T16:19:41.357Z,13.95
2019-03-22T16:22:10.181Z,17.90
2019-03-22T16:24:38.247Z,16.02
2019-03-22T16:27:07.050Z,20.17
2019-03-22T16:29:35.080Z,18.12
2019-03-22T16:32:03.900Z,22.90
2019-03-22T16:34:31.948Z,26.15
2019-03-22T16:37:00.854Z,15.20
2019-03-22T16:39:28.891Z,15.02
2019-03-22T16:41:57.033Z,18.57
2019-03-22T16:44:25.222Z,15.85
2019-03-22T16:46:53.267Z,15.48
2019-03-22T16:49:21.325Z,14.55
2019-03-22T16:51:49.398Z,17.77
2019-03-22T16:54:17.442Z,12.65
2019-03-22T16:56:45.462Z,16.53
2019-03-22T16:59:13.515Z,18.20
2019-03-22T17:01:41.572Z,15.70
2019-03-22T17:06:44.162Z,15.90
2019-03-22T17:09:12.983Z,15.27
2019-03-22T17:11:41.124Z,14.15
2019-03-22T17:14:09.158Z,12.70
2019-03-22T17:16:37.315Z,16.08
2019-03-22T17:19:05.358Z,13.40
2019-03-22T17:21:33.545Z,16.37
2019-03-22T17:24:02.796Z,14.43
2019-03-22T17:26:30.974Z,15.23
2019-03-22T17:28:59.030Z,13.55
2019-03-22T17:31:27.880Z,13.93
2019-03-22T17:33:55.911Z,15.77
2019-03-22T17:36:23.963Z,22.45
2019-03-22T17:38:53.553Z,18.67
2019-03-22T17:41:21.668Z,16.67
2019-03-22T17:43:49.721Z,16.25
2019-03-22T17:46:17.789Z,18.60
2019-03-22T17:48:47.805Z,18.70
2019-03-22T17:51:16.599Z,21.65
2019-03-22T17:53:44.663Z,18.45
2019-03-22T17:56:13.499Z,45.40
2019-03-22T17:58:41.636Z,48.87
2019-03-22T18:01:09.729Z,52.80
2019-03-22T18:03:37.888Z,49.55
2019-03-22T18:06:05.942Z,45.97
2019-03-22T18:08:34.004Z,44.20
2019-03-22T18:11:02.827Z,41.30
2019-03-22T18:13:30.918Z,38.03
2019-03-22T18:15:59.174Z,41.80
2019-03-22T18:18:27.967Z,31.47
2019-03-22T18:20:56.035Z,31.42
2019-03-22T18:23:24.823Z,28.85
2019-03-22T18:25:52.890Z,31.80
2019-03-22T18:28:20.972Z,27.55
2019-03-22T18:30:49.080Z,28.60
2019-03-22T18:33:17.139Z,24.90
2019-03-22T18:35:45.231Z,25.52
2019-03-22T18:38:13.278Z,21.15
2019-03-22T18:40:41.342Z,25.75
2019-03-22T18:43:09.381Z,23.40
2019-03-22T18:45:37.471Z,21.37
2019-03-22T18:48:05.557Z,25.10
2019-03-22T18:50:34.534Z,23.20
2019-03-22T18:53:02.583Z,24.33
2019-03-22T18:55:31.492Z,27.05
2019-03-22T18:57:59.563Z,24.10
2019-03-22T19:00:27.623Z,25.15
2019-03-22T19:02:55.670Z,24.12
2019-03-22T19:05:24.514Z,31.42
2019-03-22T19:07:52.589Z,28.92
2019-03-22T19:10:20.677Z,26.60
2019-03-22T19:12:48.714Z,27.37
2019-03-22T19:15:16.773Z,28.33
2019-03-22T19:17:44.829Z,31.50
2019-03-22T19:20:13.686Z,32.28
2019-03-22T19:22:41.855Z,26.17
2019-03-22T19:25:09.922Z,25.17
2019-03-22T19:27:38.001Z,29.90
2019-03-22T19:30:12.277Z,23.70
2019-03-22T19:32:40.371Z,27.85
2019-03-22T19:35:08.421Z,26.90
2019-03-22T19:37:36.469Z,26.12
2019-03-22T19:40:05.301Z,23.83
2019-03-22T19:42:33.343Z,27.55
2019-03-22T19:45:01.372Z,25.77
2019-03-22T19:47:30.193Z,23.02
2019-03-22T19:49:59.083Z,28.27
2019-03-22T19:52:27.122Z,26.27
2019-03-22T19:54:55.201Z,23.83
2019-03-22T19:57:24.003Z,25.55
2019-03-22T19:59:52.794Z,29.30
2019-03-22T20:02:20.838Z,23.98
2019-03-22T20:04:48.893Z,24.53
2019-03-22T20:07:26.410Z,30.35
2019-03-22T20:09:45.029Z,29.12
2019-03-22T20:12:13.168Z,28.73
2019-03-22T20:14:41.210Z,37.72
2019-03-22T20:17:09.313Z,29.60
2019-03-22T20:19:37.331Z,37.30
2019-03-22T20:22:05.375Z,39.67
2019-03-22T20:24:33.506Z,28.60
2019-03-22T20:27:02.391Z,26.98
2019-03-22T20:29:30.433Z,29.05
2019-03-22T20:31:58.470Z,29.67
2019-03-22T20:34:26.517Z,25.10
2019-03-22T20:36:54.573Z,25.40
2019-03-22T20:39:23.354Z,23.70
2019-03-22T20:41:51.426Z,25.40
2019-03-22T20:44:20.211Z,23.33
2019-03-22T20:46:48.258Z,30.37
2019-03-22T20:49:17.061Z,23.62
2019-03-22T20:51:45.181Z,22.58
2019-03-22T20:54:13.227Z,25.50
2019-03-22T20:56:41.309Z,29.17
2019-03-22T20:59:09.967Z,24.30
2019-03-22T21:01:38.077Z,24.73
2019-03-22T21:04:06.116Z,26.55
2019-03-22T21:06:34.199Z,26.12
2019-03-22T21:09:02.236Z,21.85
2019-03-22T21:11:30.367Z,27.15
2019-03-22T21:13:58.513Z,23.55
2019-03-22T21:16:26.573Z,28.08
2019-03-22T21:18:54.610Z,24.55
2019-03-22T21:21:31.965Z,27.80
2019-03-22T21:23:51.570Z,23.97
2019-03-22T21:26:20.533Z,28.33
2019-03-22T21:28:48.546Z,25.83
2019-03-22T21:31:16.598Z,27.10
2019-03-22T21:33:45.407Z,22.17
2019-03-22T21:36:14.190Z,24.73
2019-03-22T21:38:42.269Z,23.38
2019-03-22T21:41:10.328Z,27.45
2019-03-22T21:43:39.265Z,23.90
2019-03-22T21:46:07.338Z,27.13
2019-03-22T21:48:35.395Z,26.92
2019-03-22T21:51:03.432Z,30.42
2019-03-22T21:53:32.135Z,27.85
2019-03-22T21:56:00.202Z,27.25
2019-03-22T21:58:28.294Z,20.15
2019-03-22T22:00:56.330Z,24.12
2019-03-22T22:03:25.124Z,24.07
2019-03-22T22:05:53.195Z,21.67
2019-03-22T22:08:21.260Z,27.58
2019-03-22T22:10:59.327Z,25.08
2019-03-22T22:13:19.007Z,27.52
2019-03-22T22:15:47.058Z,22.27
2019-03-22T22:18:15.178Z,25.85
2019-03-22T22:20:43.219Z,23.25
2019-03-22T22:23:11.361Z,27.05
2019-03-22T22:25:40.116Z,23.00
2019-03-22T22:28:08.171Z,28.98
2019-03-22T22:30:36.960Z,22.77
2019-03-22T22:33:05.010Z,23.23
2019-03-22T22:35:33.817Z,28.50
2019-03-22T22:38:01.908Z,28.12
2019-03-22T22:40:30.010Z,27.23
2019-03-22T22:42:58.063Z,28.40
2019-03-22T22:45:26.145Z,34.45
2019-03-22T22:47:54.236Z,28.02
2019-03-22T22:50:22.272Z,35.42
2019-03-22T22:52:50.317Z,27.92
2019-03-22T22:55:19.103Z,30.33
2019-03-22T22:57:47.160Z,27.42
2019-03-22T23:00:15.979Z,26.48
2019-03-22T23:02:44.076Z,28.77
2019-03-22T23:05:12.206Z,27.62
2019-03-22T23:07:40.265Z,27.65
2019-03-22T23:10:09.108Z,26.42
2019-03-22T23:12:37.150Z,28.20
2019-03-22T23:15:05.206Z,28.38
2019-03-22T23:17:33.242Z,27.08
2019-03-22T23:20:01.295Z,29.10
2019-03-22T23:22:29.426Z,29.20
2019-03-22T23:24:57.513Z,25.58
2019-03-22T23:27:25.562Z,26.67
2019-03-22T23:29:54.386Z,22.97
2019-03-22T23:32:22.526Z,25.67
2019-03-22T23:34:58.694Z,29.10
2019-03-22T23:37:18.633Z,24.15
2019-03-22T23:39:47.487Z,24.12
2019-03-22T23:42:15.688Z,26.62
2019-03-22T23:44:43.799Z,27.62
2019-03-22T23:47:11.886Z,24.83
2019-03-22T23:49:39.898Z,29.17
2019-03-22T23:52:07.947Z,23.65
2019-03-22T23:54:36.037Z,24.58
2019-03-22T23:57:04.248Z,28.35
2019-03-22T23:59:32.307Z,28.48
